Time;durP1;ratioP1;P1;durP2;ratioP2;P2;SDS_P1;SDS_P2;PMS_P1;PMS_P2;Temp;Humidity;BMP_temperature;BMP_pressure;BME280_temperature;BME280_humidity;BME280_pressure;Samples;Min_cycle;Max_cycle;Signal;HPM_P1;HPM_P2
2023/09/04 00:01:03;;;;;;;;;;;21.10;73.00;;;;;;5049499;28;1906;-68
2023/09/04 00:03:30;;;;;;;;;;;21.10;73.00;;;;;;5050555;28;1056;-68
2023/09/04 00:05:55;;;;;;;;;;;21.10;73.00;;;;;;5045103;28;1088;-68
2023/09/04 00:08:21;;;;;;;;;;;21.10;72.90;;;;;;5044650;28;819;-68
2023/09/04 00:10:46;;;;;;;;;;;21.10;73.00;;;;;;5044657;28;1356;-68
2023/09/04 00:13:12;;;;;;;;;;;21.10;73.00;;;;;;5050116;28;910;-68
2023/09/04 00:15:38;;;;;;;;;;;21.10;73.00;;;;;;5065373;28;1193;-69
2023/09/04 00:18:03;;;;;;;;;;;21.10;73.00;;;;;;5049214;28;901;-68
2023/09/04 00:20:29;;;;;;;;;;;21.10;73.00;;;;;;5049776;28;1975;-67
2023/09/04 00:22:55;;;;;;;;;;;21.10;73.00;;;;;;5052248;28;1233;-68
2023/09/04 00:25:21;;;;;;;;;;;21.10;73.00;;;;;;5042065;28;835;-68
2023/09/04 00:27:46;;;;;;;;;;;21.10;73.00;;;;;;5052469;28;1420;-68
2023/09/04 00:30:12;;;;;;;;;;;21.10;73.00;;;;;;5050317;28;1409;-68
2023/09/04 00:32:38;;;;;;;;;;;21.10;73.00;;;;;;5051913;28;1307;-69
2023/09/04 00:35:04;;;;;;;;;;;21.10;73.00;;;;;;5054181;28;844;-68
2023/09/04 00:37:29;;;;;;;;;;;21.10;73.00;;;;;;5053848;28;1065;-68
2023/09/04 00:39:55;;;;;;;;;;;21.10;73.00;;;;;;5044516;28;1898;-68
2023/09/04 00:42:20;;;;;;;;;;;21.10;73.00;;;;;;5053993;28;1224;-69
2023/09/04 00:44:50;;;;;;;;;;;21.10;73.00;;;;;;5052570;28;1081;-69
2023/09/04 00:47:17;;;;;;;;;;;21.10;73.00;;;;;;5053471;28;853;-69
2023/09/04 00:49:42;;;;;;;;;;;21.10;73.00;;;;;;5044539;28;1253;-68
2023/09/04 00:52:08;;;;;;;;;;;21.10;73.00;;;;;;5049087;28;1339;-68
2023/09/04 00:54:34;;;;;;;;;;;21.10;73.00;;;;;;5048412;28;1176;-68
2023/09/04 00:57:02;;;;;;;;;;;21.10;73.00;;;;;;5042812;28;856;-69
2023/09/04 00:59:28;;;;;;;;;;;21.10;73.00;;;;;;5044866;28;1914;-69
2023/09/04 01:01:53;;;;;;;;;;;21.10;73.00;;;;;;5043812;28;1454;-68
2023/09/04 01:04:20;;;;;;;;;;;21.10;73.00;;;;;;5049036;28;919;-68
2023/09/04 01:06:45;;;;;;;;;;;21.10;73.00;;;;;;5036175;28;1428;-68
2023/09/04 01:09:11;;;;;;;;;;;21.10;73.00;;;;;;5052997;28;855;-67
2023/09/04 01:11:46;;;;;;;;;;;21.10;73.00;;;;;;5045584;28;1298;-68
2023/09/04 01:14:13;;;;;;;;;;;21.10;73.00;;;;;;5053186;28;958;-68
2023/09/04 01:16:39;;;;;;;;;;;21.10;73.00;;;;;;5045546;28;907;-68
2023/09/04 01:19:04;;;;;;;;;;;21.10;73.00;;;;;;5052585;28;1308;-69
2023/09/04 01:21:34;;;;;;;;;;;21.10;73.00;;;;;;5043537;28;1901;-68
2023/09/04 01:23:59;;;;;;;;;;;21.10;73.10;;;;;;5044563;28;1129;-68
2023/09/04 01:26:26;;;;;;;;;;;21.10;73.00;;;;;;5053170;28;864;-68
2023/09/04 01:28:55;;;;;;;;;;;21.10;73.00;;;;;;5048227;28;971;-69
2023/09/04 01:31:23;;;;;;;;;;;21.10;73.00;;;;;;5052272;28;1267;-69
2023/09/04 01:33:55;;;;;;;;;;;21.10;73.00;;;;;;5046001;28;1018;-69
2023/09/04 01:36:20;;;;;;;;;;;21.10;73.00;;;;;;5053071;28;907;-69
2023/09/04 01:38:46;;;;;;;;;;;21.10;73.00;;;;;;5045223;28;816;-68
2023/09/04 01:41:11;;;;;;;;;;;21.10;73.00;;;;;;5052493;28;1902;-68
2023/09/04 01:43:37;;;;;;;;;;;21.10;73.00;;;;;;5051596;28;828;-68
2023/09/04 01:46:02;;;;;;;;;;;21.10;73.10;;;;;;5044882;28;877;-68
2023/09/04 01:48:28;;;;;;;;;;;21.10;73.10;;;;;;5051819;28;1019;-68
2023/09/04 01:50:56;;;;;;;;;;;21.10;73.00;;;;;;5045411;28;1280;-68
2023/09/04 01:53:22;;;;;;;;;;;21.10;73.00;;;;;;5045137;28;898;-68
2023/09/04 01:55:47;;;;;;;;;;;21.10;73.10;;;;;;5051792;28;781;-68
2023/09/04 01:58:13;;;;;;;;;;;21.10;73.00;;;;;;5051695;28;906;-68
2023/09/04 02:00:38;;;;;;;;;;;21.10;73.10;;;;;;5052321;28;1981;-69
2023/09/04 02:03:04;;;;;;;;;;;21.10;73.00;;;;;;5052268;28;875;-69
2023/09/04 02:05:29;;;;;;;;;;;21.10;73.00;;;;;;5052202;28;792;-68
2023/09/04 02:07:55;;;;;;;;;;;21.10;73.00;;;;;;5045456;28;847;-68
2023/09/04 02:10:22;;;;;;;;;;;21.10;73.10;;;;;;5042835;28;1261;-68
2023/09/04 02:12:48;;;;;;;;;;;21.10;73.10;;;;;;5052070;28;1628;-69
2023/09/04 02:15:13;;;;;;;;;;;21.10;73.00;;;;;;5045625;28;900;-69
2023/09/04 02:17:39;;;;;;;;;;;21.10;73.00;;;;;;5052351;28;994;-69
2023/09/04 02:20:05;;;;;;;;;;;21.10;73.10;;;;;;5047136;28;1951;-68
2023/09/04 02:22:30;;;;;;;;;;;21.10;73.10;;;;;;5044480;28;1314;-68
2023/09/04 02:24:55;;;;;;;;;;;21.10;73.10;;;;;;5052155;28;1101;-68
2023/09/04 02:27:21;;;;;;;;;;;21.10;73.00;;;;;;5051781;28;1365;-68
2023/09/04 02:29:46;;;;;;;;;;;21.10;73.10;;;;;;5051287;28;926;-68
2023/09/04 02:32:12;;;;;;;;;;;21.10;73.10;;;;;;5051243;28;1407;-68
2023/09/04 02:34:40;;;;;;;;;;;21.10;73.10;;;;;;5052071;28;887;-68
2023/09/04 02:37:05;;;;;;;;;;;21.10;73.10;;;;;;5045150;28;1240;-68
2023/09/04 02:39:31;;;;;;;;;;;21.10;73.10;;;;;;5050814;28;1959;-68
2023/09/04 02:41:56;;;;;;;;;;;21.10;73.10;;;;;;5050168;28;1379;-68
2023/09/04 02:44:22;;;;;;;;;;;21.10;73.10;;;;;;5051855;28;935;-68
2023/09/04 02:46:47;;;;;;;;;;;21.10;73.10;;;;;;5051035;28;820;-68
2023/09/04 02:49:13;;;;;;;;;;;21.10;73.10;;;;;;5050748;28;938;-68
2023/09/04 02:51:38;;;;;;;;;;;21.10;73.10;;;;;;5054156;28;1346;-68
2023/09/04 02:54:04;;;;;;;;;;;21.10;73.10;;;;;;5048135;28;820;-68
2023/09/04 02:56:29;;;;;;;;;;;21.10;73.10;;;;;;5045890;28;943;-67
2023/09/04 02:58:55;;;;;;;;;;;21.10;73.10;;;;;;5050311;28;982;-67
2023/09/04 03:01:20;;;;;;;;;;;21.10;73.10;;;;;;5043737;28;1903;-68
2023/09/04 03:03:46;;;;;;;;;;;21.10;73.10;;;;;;5051635;28;773;-67
2023/09/04 03:06:11;;;;;;;;;;;21.10;73.10;;;;;;5045219;28;888;-67
2023/09/04 03:08:38;;;;;;;;;;;21.10;73.10;;;;;;5050357;28;883;-67
2023/09/04 03:11:10;;;;;;;;;;;21.10;73.10;;;;;;5051260;28;1286;-67
2023/09/04 03:13:36;;;;;;;;;;;21.10;73.10;;;;;;5051257;28;916;-67
2023/09/04 03:16:01;;;;;;;;;;;21.10;73.10;;;;;;5053028;28;1033;-67
2023/09/04 03:18:29;;;;;;;;;;;21.10;73.10;;;;;;5052287;28;949;-68
2023/09/04 03:20:56;;;;;;;;;;;21.10;73.10;;;;;;5048637;28;1985;-68
2023/09/04 03:23:21;;;;;;;;;;;21.10;73.10;;;;;;5052474;28;876;-68
2023/09/04 03:25:47;;;;;;;;;;;21.10;73.20;;;;;;5052317;28;1026;-68
2023/09/04 03:28:12;;;;;;;;;;;21.10;73.10;;;;;;5050407;28;1357;-68
2023/09/04 03:30:38;;;;;;;;;;;21.10;73.10;;;;;;5050878;28;1379;-68
2023/09/04 03:33:03;;;;;;;;;;;21.10;73.10;;;;;;5050349;28;828;-68
2023/09/04 03:35:29;;;;;;;;;;;21.10;73.10;;;;;;5042221;28;1223;-69
2023/09/04 03:37:55;;;;;;;;;;;21.10;73.10;;;;;;5054771;28;1372;-69
2023/09/04 03:40:23;;;;;;;;;;;21.10;73.10;;;;;;5051223;28;1914;-69
2023/09/04 03:42:49;;;;;;;;;;;21.10;73.10;;;;;;5052614;28;803;-69
2023/09/04 03:45:15;;;;;;;;;;;21.10;73.10;;;;;;5052466;28;1227;-68
2023/09/04 03:47:41;;;;;;;;;;;21.10;73.10;;;;;;5046054;28;1269;-69
2023/09/04 03:50:11;;;;;;;;;;;21.10;73.20;;;;;;5050287;28;1332;-68
2023/09/04 03:52:38;;;;;;;;;;;21.10;73.20;;;;;;5027910;28;1984;-67
2023/09/04 03:55:04;;;;;;;;;;;21.10;73.10;;;;;;5051571;28;880;-69
2023/09/04 03:57:29;;;;;;;;;;;21.10;73.20;;;;;;5051060;28;1075;-70
2023/09/04 03:59:58;;;;;;;;;;;21.10;73.10;;;;;;5050669;28;1906;-68
2023/09/04 04:02:24;;;;;;;;;;;21.10;73.20;;;;;;5051702;28;1288;-67
2023/09/04 04:04:52;;;;;;;;;;;21.10;73.10;;;;;;5052052;28;898;-68
2023/09/04 04:07:18;;;;;;;;;;;21.10;73.20;;;;;;5050957;28;840;-68
2023/09/04 04:09:44;;;;;;;;;;;21.10;73.20;;;;;;5051917;28;895;-69
2023/09/04 04:12:10;;;;;;;;;;;21.10;73.20;;;;;;5033394;28;1471;-69
2023/09/04 04:14:36;;;;;;;;;;;21.10;73.20;;;;;;5049547;28;1155;-68
2023/09/04 04:17:02;;;;;;;;;;;21.10;73.20;;;;;;5051788;28;887;-69
2023/09/04 04:19:27;;;;;;;;;;;21.10;73.10;;;;;;5050831;28;1386;-69
2023/09/04 04:21:53;;;;;;;;;;;21.10;73.10;;;;;;5049054;28;1969;-69
2023/09/04 04:24:19;;;;;;;;;;;21.10;73.20;;;;;;5050766;28;1247;-68
2023/09/04 04:26:45;;;;;;;;;;;21.10;73.20;;;;;;5050260;28;903;-69
2023/09/04 04:29:10;;;;;;;;;;;21.10;73.20;;;;;;5050817;28;960;-68
2023/09/04 04:31:36;;;;;;;;;;;21.10;73.20;;;;;;5050668;28;1331;-69
2023/09/04 04:34:02;;;;;;;;;;;21.10;73.20;;;;;;5050570;28;847;-68
2023/09/04 04:36:27;;;;;;;;;;;21.10;73.20;;;;;;5050676;28;1243;-68
2023/09/04 04:38:53;;;;;;;;;;;21.10;73.20;;;;;;5049131;28;918;-68
2023/09/04 04:41:18;;;;;;;;;;;21.10;73.10;;;;;;5046526;28;1906;-69
2023/09/04 04:43:44;;;;;;;;;;;21.10;73.20;;;;;;5049700;28;822;-69
2023/09/04 04:46:12;;;;;;;;;;;21.10;73.20;;;;;;5049866;28;868;-69
2023/09/04 04:48:38;;;;;;;;;;;21.10;73.20;;;;;;5050435;28;851;-68
2023/09/04 04:51:03;;;;;;;;;;;21.10;73.10;;;;;;5048717;28;1295;-68
2023/09/04 04:53:29;;;;;;;;;;;21.10;73.20;;;;;;5050418;28;872;-68
2023/09/04 04:55:55;;;;;;;;;;;21.10;73.20;;;;;;5040295;28;955;-68
2023/09/04 04:58:21;;;;;;;;;;;21.10;73.20;;;;;;5048168;28;956;-68
2023/09/04 05:00:46;;;;;;;;;;;21.10;73.20;;;;;;5049243;28;1910;-67
2023/09/04 05:03:12;;;;;;;;;;;21.10;73.20;;;;;;5049358;28;1283;-68
2023/09/04 05:05:42;;;;;;;;;;;21.10;73.30;;;;;;5043166;28;847;-68
2023/09/04 05:08:08;;;;;;;;;;;21.10;73.20;;;;;;5042182;28;886;-68
2023/09/04 05:10:33;;;;;;;;;;;21.10;73.20;;;;;;5049183;28;1284;-67
2023/09/04 05:12:59;;;;;;;;;;;21.10;73.20;;;;;;5049367;28;998;-68
2023/09/04 05:15:24;;;;;;;;;;;21.10;73.20;;;;;;5049162;28;806;-68
2023/09/04 05:17:50;;;;;;;;;;;21.10;73.20;;;;;;5049169;28;896;-69
2023/09/04 05:20:15;;;;;;;;;;;21.10;73.20;;;;;;5052611;28;1914;-67
2023/09/04 05:22:41;;;;;;;;;;;21.10;73.20;;;;;;5053124;28;799;-67
2023/09/04 05:25:06;;;;;;;;;;;21.10;73.90;;;;;;5052750;28;974;-68
2023/09/04 05:27:32;;;;;;;;;;;21.10;73.20;;;;;;5048951;28;1390;-69
2023/09/04 05:29:57;;;;;;;;;;;21.10;73.20;;;;;;5052306;28;1070;-69
2023/09/04 05:32:23;;;;;;;;;;;21.10;73.20;;;;;;5052942;28;1331;-69
2023/09/04 05:34:51;;;;;;;;;;;21.10;73.20;;;;;;5052622;28;1303;-69
2023/09/04 05:37:16;;;;;;;;;;;21.10;73.20;;;;;;5052707;28;891;-68
2023/09/04 05:39:42;;;;;;;;;;;21.10;73.20;;;;;;5052180;28;1906;-69
2023/09/04 05:42:07;;;;;;;;;;;21.10;73.20;;;;;;5052880;28;1292;-68
2023/09/04 05:44:33;;;;;;;;;;;21.10;73.20;;;;;;5052770;28;899;-69
2023/09/04 05:47:00;;;;;;;;;;;21.10;73.20;;;;;;5053056;28;871;-68
2023/09/04 05:49:25;;;;;;;;;;;21.10;73.20;;;;;;5052443;28;1294;-68
2023/09/04 05:51:52;;;;;;;;;;;21.10;73.20;;;;;;5053372;28;1351;-68
2023/09/04 05:54:18;;;;;;;;;;;21.10;73.20;;;;;;5053122;28;911;-68
2023/09/04 05:56:43;;;;;;;;;;;21.10;73.20;;;;;;5052762;28;866;-68
2023/09/04 05:59:09;;;;;;;;;;;21.10;73.20;;;;;;5051299;28;1022;-68
2023/09/04 06:01:34;;;;;;;;;;;21.10;73.20;;;;;;5052259;28;1953;-68
2023/09/04 06:04:00;;;;;;;;;;;21.10;73.20;;;;;;5052689;28;1064;-68
2023/09/04 06:06:25;;;;;;;;;;;21.10;73.20;;;;;;5051505;28;1207;-68
2023/09/04 06:08:51;;;;;;;;;;;21.10;73.20;;;;;;5050945;28;1459;-69
2023/09/04 06:11:17;;;;;;;;;;;21.10;73.20;;;;;;5051861;28;1723;-69
2023/09/04 06:13:42;;;;;;;;;;;21.10;73.20;;;;;;5052296;28;854;-68
2023/09/04 06:16:08;;;;;;;;;;;21.10;74.00;;;;;;5047123;28;827;-68
2023/09/04 06:18:35;;;;;;;;;;;21.10;73.20;;;;;;5051143;28;1035;-67
2023/09/04 06:21:00;;;;;;;;;;;21.10;73.20;;;;;;5051706;28;1902;-67
2023/09/04 06:23:26;;;;;;;;;;;21.10;73.20;;;;;;5050654;28;806;-68
2023/09/04 06:25:51;;;;;;;;;;;21.10;73.20;;;;;;5052277;28;911;-67
2023/09/04 06:28:17;;;;;;;;;;;21.10;73.20;;;;;;5051147;28;1263;-68
2023/09/04 06:30:44;;;;;;;;;;;21.10;73.20;;;;;;5046077;28;1278;-67
2023/09/04 06:33:10;;;;;;;;;;;21.10;73.20;;;;;;5051233;28;860;-68
2023/09/04 06:35:35;;;;;;;;;;;21.10;73.20;;;;;;5051970;28;784;-68
2023/09/04 06:38:01;;;;;;;;;;;21.10;73.20;;;;;;5051011;28;1184;-68
2023/09/04 06:40:26;;;;;;;;;;;21.10;73.20;;;;;;5050616;28;1934;-68
2023/09/04 06:42:55;;;;;;;;;;;21.10;73.20;;;;;;5050655;28;1199;-68
2023/09/04 06:45:20;;;;;;;;;;;21.10;73.20;;;;;;5044418;28;1226;-68
2023/09/04 06:47:46;;;;;;;;;;;21.10;73.20;;;;;;5050957;28;846;-68
2023/09/04 06:50:11;;;;;;;;;;;21.10;73.30;;;;;;5039101;28;1348;-68
2023/09/04 06:52:37;;;;;;;;;;;21.10;73.30;;;;;;5048982;28;1109;-68
2023/09/04 06:55:03;;;;;;;;;;;21.10;73.30;;;;;;5046185;28;954;-68
2023/09/04 06:57:28;;;;;;;;;;;21.10;73.30;;;;;;5051432;28;903;-68
2023/09/04 06:59:55;;;;;;;;;;;21.10;73.20;;;;;;5050630;28;1965;-68
2023/09/04 07:02:20;;;;;;;;;;;21.10;73.30;;;;;;5050991;28;1271;-69
2023/09/04 07:04:46;;;;;;;;;;;21.10;73.30;;;;;;5051226;28;1680;-68
2023/09/04 07:07:11;;;;;;;;;;;21.10;73.30;;;;;;5050081;28;859;-68
2023/09/04 07:09:37;;;;;;;;;;;21.10;73.30;;;;;;5050207;28;865;-68
2023/09/04 07:12:03;;;;;;;;;;;21.10;73.30;;;;;;5051187;28;1204;-68
2023/09/04 07:14:28;;;;;;;;;;;21.10;73.30;;;;;;5051020;28;852;-68
2023/09/04 07:16:54;;;;;;;;;;;21.10;73.30;;;;;;5051151;28;939;-68
2023/09/04 07:19:19;;;;;;;;;;;21.10;73.30;;;;;;5050230;28;1317;-68
2023/09/04 07:21:44;;;;;;;;;;;21.10;73.30;;;;;;5050179;28;1902;-68
2023/09/04 07:24:10;;;;;;;;;;;21.10;73.30;;;;;;5050806;28;938;-68
2023/09/04 07:26:35;;;;;;;;;;;21.10;73.30;;;;;;5051061;28;926;-68
2023/09/04 07:29:01;;;;;;;;;;;21.10;73.30;;;;;;5049992;28;1249;-68
2023/09/04 07:31:28;;;;;;;;;;;21.10;73.30;;;;;;5037431;28;1256;-68
2023/09/04 07:33:53;;;;;;;;;;;21.10;73.30;;;;;;5050636;28;866;-69
2023/09/04 07:36:19;;;;;;;;;;;21.10;73.30;;;;;;5050704;28;935;-68
2023/09/04 07:38:45;;;;;;;;;;;21.10;73.30;;;;;;5042156;28;879;-68
2023/09/04 07:41:10;;;;;;;;;;;21.10;73.30;;;;;;5045346;28;1890;-68
2023/09/04 07:43:36;;;;;;;;;;;21.10;73.30;;;;;;5049928;28;1365;-68
2023/09/04 07:46:02;;;;;;;;;;;21.10;73.40;;;;;;5050585;28;883;-68
2023/09/04 07:48:27;;;;;;;;;;;21.10;73.40;;;;;;5049373;28;820;-68
2023/09/04 07:50:53;;;;;;;;;;;21.10;73.40;;;;;;5040726;28;1278;-67
2023/09/04 07:53:18;;;;;;;;;;;21.10;73.40;;;;;;5049897;28;1631;-68
2023/09/04 07:55:44;;;;;;;;;;;21.10;73.40;;;;;;5050113;28;1128;-68
2023/09/04 07:58:10;;;;;;;;;;;21.10;73.40;;;;;;5049430;28;949;-68
2023/09/04 08:00:36;;;;;;;;;;;21.10;73.40;;;;;;5050006;28;1965;-68
2023/09/04 08:03:02;;;;;;;;;;;21.10;73.40;;;;;;5049563;28;856;-68
2023/09/04 08:05:28;;;;;;;;;;;21.10;73.40;;;;;;5050543;28;897;-68
2023/09/04 08:07:53;;;;;;;;;;;21.10;73.30;;;;;;5049520;28;875;-69
2023/09/04 08:10:19;;;;;;;;;;;21.10;73.40;;;;;;5049485;28;1398;-69
2023/09/04 08:12:44;;;;;;;;;;;21.10;73.30;;;;;;5044272;28;861;-68
2023/09/04 08:15:10;;;;;;;;;;;21.10;73.30;;;;;;5050145;28;1014;-68
2023/09/04 08:17:36;;;;;;;;;;;21.10;73.30;;;;;;5043996;28;852;-68
2023/09/04 08:20:01;;;;;;;;;;;21.10;73.40;;;;;;5043879;28;1929;-68
2023/09/04 08:22:27;;;;;;;;;;;21.10;73.40;;;;;;5041298;28;1301;-68
2023/09/04 08:24:55;;;;;;;;;;;21.10;73.30;;;;;;5050158;28;833;-68
2023/09/04 08:27:20;;;;;;;;;;;21.10;73.30;;;;;;5049332;28;1370;-69
2023/09/04 08:29:46;;;;;;;;;;;21.10;73.40;;;;;;5049573;28;801;-68
2023/09/04 08:32:11;;;;;;;;;;;21.10;73.40;;;;;;5049778;28;1273;-68
2023/09/04 08:34:37;;;;;;;;;;;21.10;73.40;;;;;;5031896;28;1369;-68
2023/09/04 08:37:02;;;;;;;;;;;21.10;73.40;;;;;;5049904;28;870;-68
2023/09/04 08:39:28;;;;;;;;;;;21.10;73.50;;;;;;5049345;28;936;-68
2023/09/04 08:41:54;;;;;;;;;;;21.10;73.40;;;;;;5049505;28;1890;-68
2023/09/04 08:44:19;;;;;;;;;;;21.10;74.20;;;;;;5047053;28;859;-68
2023/09/04 08:46:45;;;;;;;;;;;21.10;73.40;;;;;;5045550;28;897;-67
2023/09/04 08:49:11;;;;;;;;;;;21.10;73.40;;;;;;5048144;28;777;-68
2023/09/04 08:51:36;;;;;;;;;;;21.10;73.40;;;;;;5049550;28;1291;-68
2023/09/04 08:54:02;;;;;;;;;;;21.10;73.50;;;;;;5046175;28;935;-68
2023/09/04 08:56:28;;;;;;;;;;;21.10;73.40;;;;;;5035649;28;1357;-69
2023/09/04 08:58:53;;;;;;;;;;;21.10;73.40;;;;;;5046952;28;915;-68
2023/09/04 09:01:19;;;;;;;;;;;21.10;73.40;;;;;;5050190;28;1961;-69
2023/09/04 09:03:44;;;;;;;;;;;21.10;73.40;;;;;;5047436;28;801;-68
2023/09/04 09:06:10;;;;;;;;;;;21.10;73.40;;;;;;5044630;28;895;-68
2023/09/04 09:08:35;;;;;;;;;;;21.10;73.40;;;;;;5047886;28;1385;-69
2023/09/04 09:11:03;;;;;;;;;;;21.10;73.40;;;;;;5053201;28;1352;-68
2023/09/04 09:13:28;;;;;;;;;;;21.10;73.40;;;;;;5052945;28;943;-68
2023/09/04 09:15:54;;;;;;;;;;;21.10;73.40;;;;;;5053467;28;859;-69
2023/09/04 09:18:37;;;;;;;;;;;21.10;73.40;;;;;;5052486;28;1361;-68
2023/09/04 09:21:19;;;;;;;;;;;21.10;73.40;;;;;;5053443;28;1905;-69
2023/09/04 09:23:44;;;;;;;;;;;21.10;73.40;;;;;;5054512;28;1597;-68
2023/09/04 09:26:10;;;;;;;;;;;21.10;73.40;;;;;;5053946;28;853;-68
2023/09/04 09:28:35;;;;;;;;;;;21.10;73.40;;;;;;5047285;28;1344;-68
2023/09/04 09:31:01;;;;;;;;;;;21.10;73.40;;;;;;5052447;28;1343;-68
2023/09/04 09:33:26;;;;;;;;;;;21.10;73.40;;;;;;5041553;28;809;-68
2023/09/04 09:35:52;;;;;;;;;;;21.10;73.30;;;;;;5045533;28;1609;-69
2023/09/04 09:38:18;;;;;;;;;;;21.10;73.40;;;;;;5045575;28;1022;-69
2023/09/04 09:40:44;;;;;;;;;;;21.10;73.40;;;;;;5052635;28;1902;-68
2023/09/04 09:43:09;;;;;;;;;;;21.10;73.40;;;;;;5052607;28;964;-68
2023/09/04 09:45:35;;;;;;;;;;;21.10;73.40;;;;;;5052642;28;851;-68
2023/09/04 09:48:04;;;;;;;;;;;21.10;73.30;;;;;;5044805;28;883;-68
2023/09/04 09:50:29;;;;;;;;;;;21.10;73.40;;;;;;5052590;28;1250;-68
2023/09/04 09:52:55;;;;;;;;;;;21.10;73.40;;;;;;5052569;28;947;-68
2023/09/04 09:55:24;;;;;;;;;;;21.10;73.40;;;;;;5046177;28;820;-69
2023/09/04 09:57:50;;;;;;;;;;;21.10;73.40;;;;;;5046547;28;860;-68
2023/09/04 10:00:16;;;;;;;;;;;21.10;73.40;;;;;;5044805;28;1910;-68
2023/09/04 10:02:41;;;;;;;;;;;21.10;73.40;;;;;;5046814;28;1088;-68
2023/09/04 10:05:09;;;;;;;;;;;21.10;73.40;;;;;;5050983;28;1239;-68
2023/09/04 10:07:34;;;;;;;;;;;21.10;73.40;;;;;;5051382;28;1306;-68
2023/09/04 10:10:03;;;;;;;;;;;21.10;73.40;;;;;;5051387;28;1412;-68
2023/09/04 10:12:37;;;;;;;;;;;21.10;73.40;;;;;;5050888;28;1823;-67
2023/09/04 10:15:04;;;;;;;;;;;21.10;73.40;;;;;;5050676;28;1339;-67
2023/09/04 10:17:35;;;;;;;;;;;21.10;73.40;;;;;;5047177;28;1237;-67
2023/09/04 10:20:02;;;;;;;;;;;21.10;73.40;;;;;;5050926;28;1957;-67
2023/09/04 10:22:30;;;;;;;;;;;21.10;73.40;;;;;;5033626;28;1529;-68
2023/09/04 10:25:01;;;;;;;;;;;21.10;73.40;;;;;;5051784;28;1276;-68
2023/09/04 10:27:27;;;;;;;;;;;21.10;73.40;;;;;;5051352;28;1403;-68
2023/09/04 10:30:05;;;;;;;;;;;21.10;73.40;;;;;;5047005;28;1339;-70
2023/09/04 10:32:30;;;;;;;;;;;21.10;73.40;;;;;;5046691;28;1422;-69
2023/09/04 10:34:56;;;;;;;;;;;21.10;73.50;;;;;;5033481;28;1344;-69
2023/09/04 10:37:21;;;;;;;;;;;21.10;73.40;;;;;;5051647;28;923;-68
2023/09/04 10:39:47;;;;;;;;;;;21.10;73.40;;;;;;5044089;28;1938;-68
2023/09/04 10:42:12;;;;;;;;;;;21.10;73.40;;;;;;5051431;28;1290;-69
2023/09/04 10:44:51;;;;;;;;;;;21.10;73.40;;;;;;5051306;28;912;-68
2023/09/04 10:47:17;;;;;;;;;;;21.10;73.40;;;;;;5043233;28;1208;-68
2023/09/04 10:49:42;;;;;;;;;;;21.10;73.30;;;;;;5041651;28;927;-69
2023/09/04 10:52:08;;;;;;;;;;;21.10;73.30;;;;;;5042247;28;1283;-67
2023/09/04 10:54:34;;;;;;;;;;;21.10;73.30;;;;;;5050404;28;908;-68
2023/09/04 10:57:00;;;;;;;;;;;21.10;73.30;;;;;;5051440;28;994;-68
2023/09/04 10:59:26;;;;;;;;;;;21.10;73.30;;;;;;5039592;28;895;-68
2023/09/04 11:01:51;;;;;;;;;;;21.10;73.30;;;;;;5051088;28;1910;-68
2023/09/04 11:04:31;;;;;;;;;;;21.10;73.30;;;;;;5051369;28;868;-70
2023/09/04 11:07:15;;;;;;;;;;;21.10;73.30;;;;;;5039147;28;904;-68
2023/09/04 11:09:41;;;;;;;;;;;21.10;73.30;;;;;;5050508;28;1061;-68
2023/09/04 11:12:10;;;;;;;;;;;21.10;73.50;;;;;;5051201;28;1260;-68
2023/09/04 11:14:42;;;;;;;;;;;21.10;73.40;;;;;;5043372;28;865;-68
2023/09/04 11:17:08;;;;;;;;;;;21.10;73.30;;;;;;5041091;28;1377;-67
2023/09/04 11:19:34;;;;;;;;;;;21.10;73.30;;;;;;5045060;28;1396;-68
2023/09/04 11:21:59;;;;;;;;;;;21.10;73.30;;;;;;5044738;28;1906;-68
2023/09/04 11:24:25;;;;;;;;;;;21.10;73.30;;;;;;5050539;28;808;-67
2023/09/04 11:26:50;;;;;;;;;;;21.10;73.30;;;;;;5051176;28;918;-67
2023/09/04 11:29:16;;;;;;;;;;;21.10;73.30;;;;;;5050022;28;1475;-68
2023/09/04 11:31:41;;;;;;;;;;;21.10;73.30;;;;;;5045203;28;1280;-67
2023/09/04 11:34:07;;;;;;;;;;;21.10;73.30;;;;;;5050507;28;840;-68
2023/09/04 11:36:36;;;;;;;;;;;21.10;73.30;;;;;;5050875;28;1001;-68
2023/09/04 11:39:03;;;;;;;;;;;21.10;73.30;;;;;;5049753;28;1089;-68
2023/09/04 11:41:29;;;;;;;;;;;21.10;73.30;;;;;;5049455;28;1894;-68
2023/09/04 11:43:54;;;;;;;;;;;21.10;73.30;;;;;;5050473;28;968;-67
2023/09/04 11:46:19;;;;;;;;;;;21.20;73.40;;;;;;5050249;28;907;-68
2023/09/04 11:48:45;;;;;;;;;;;21.10;73.30;;;;;;5049877;28;918;-68
2023/09/04 11:51:10;;;;;;;;;;;21.10;73.30;;;;;;5042217;28;1377;-68
2023/09/04 11:53:37;;;;;;;;;;;21.10;73.30;;;;;;5050253;28;866;-68
2023/09/04 11:56:03;;;;;;;;;;;21.20;73.30;;;;;;5041753;28;887;-68
2023/09/04 11:58:29;;;;;;;;;;;21.10;73.30;;;;;;5043775;28;882;-67
2023/09/04 12:00:55;;;;;;;;;;;21.20;73.40;;;;;;5049491;28;1906;-67
2023/09/04 12:03:20;;;;;;;;;;;21.10;73.30;;;;;;5032177;28;865;-69
2023/09/04 12:05:47;;;;;;;;;;;21.20;73.40;;;;;;5050437;28;832;-68
2023/09/04 12:08:12;;;;;;;;;;;21.20;73.30;;;;;;5049469;28;816;-68
2023/09/04 12:10:38;;;;;;;;;;;21.20;73.30;;;;;;5050231;28;1264;-68
2023/09/04 12:13:03;;;;;;;;;;;21.20;73.40;;;;;;5043445;28;839;-68
2023/09/04 12:15:37;;;;;;;;;;;21.10;73.30;;;;;;5042428;28;1111;-69
2023/09/04 12:18:03;;;;;;;;;;;21.10;73.30;;;;;;5048319;28;1236;-68
2023/09/04 12:20:35;;;;;;;;;;;21.20;73.40;;;;;;5050003;28;1963;-68
2023/09/04 12:23:01;;;;;;;;;;;21.10;73.40;;;;;;5043291;28;899;-69
2023/09/04 12:25:32;;;;;;;;;;;21.10;73.30;;;;;;5042377;28;1389;-68
2023/09/04 12:27:58;;;;;;;;;;;21.10;73.30;;;;;;5041763;28;1262;-68
2023/09/04 12:30:24;;;;;;;;;;;21.20;73.40;;;;;;5048239;28;1369;-68
2023/09/04 12:32:49;;;;;;;;;;;21.10;73.30;;;;;;5056303;28;829;-68
2023/09/04 12:35:16;;;;;;;;;;;21.10;73.30;;;;;;5048524;28;806;-68
2023/09/04 12:37:42;;;;;;;;;;;21.10;73.30;;;;;;5049249;28;1406;-68
2023/09/04 12:40:10;;;;;;;;;;;21.20;73.40;;;;;;5054944;28;1902;-69
2023/09/04 12:42:37;;;;;;;;;;;21.10;73.30;;;;;;5055938;28;911;-68
2023/09/04 12:45:03;;;;;;;;;;;21.10;74.10;;;;;;5047843;28;836;-69
2023/09/04 12:47:28;;;;;;;;;;;21.20;73.40;;;;;;5055895;28;851;-69
2023/09/04 12:49:54;;;;;;;;;;;21.10;73.30;;;;;;5056029;28;1050;-68
2023/09/04 12:52:19;;;;;;;;;;;21.20;73.40;;;;;;5056497;28;1322;-68
2023/09/04 12:54:45;;;;;;;;;;;21.10;73.30;;;;;;5056137;28;1300;-68
2023/09/04 12:57:11;;;;;;;;;;;21.10;73.30;;;;;;5056252;28;1224;-68
2023/09/04 12:59:36;;;;;;;;;;;21.20;73.40;;;;;;5055935;28;1363;-69
2023/09/04 13:02:02;;;;;;;;;;;21.10;73.30;;;;;;5055428;28;1886;-68
2023/09/04 13:04:27;;;;;;;;;;;21.10;73.30;;;;;;5055938;28;1427;-68
2023/09/04 13:06:53;;;;;;;;;;;21.10;73.30;;;;;;5055897;28;1348;-68
2023/09/04 13:09:18;;;;;;;;;;;21.10;73.30;;;;;;5054120;28;1540;-68
2023/09/04 13:11:44;;;;;;;;;;;21.10;73.30;;;;;;5056080;28;1305;-68
2023/09/04 13:14:09;;;;;;;;;;;21.20;73.40;;;;;;5055860;28;911;-69
2023/09/04 13:16:35;;;;;;;;;;;21.20;73.40;;;;;;5055884;28;828;-69
2023/09/04 13:19:00;;;;;;;;;;;21.10;73.30;;;;;;5055417;28;857;-68
2023/09/04 13:21:26;;;;;;;;;;;21.10;73.30;;;;;;5055189;28;1955;-68
2023/09/04 13:23:51;;;;;;;;;;;21.20;73.40;;;;;;5056110;28;1073;-69
2023/09/04 13:26:18;;;;;;;;;;;21.20;73.40;;;;;;5055588;28;795;-69
2023/09/04 13:28:43;;;;;;;;;;;21.20;73.40;;;;;;5057770;28;1342;-69
2023/09/04 13:31:09;;;;;;;;;;;21.10;73.30;;;;;;5056232;28;1235;-69
2023/09/04 13:33:37;;;;;;;;;;;21.10;73.30;;;;;;5056167;28;898;-69
2023/09/04 13:36:02;;;;;;;;;;;21.10;73.40;;;;;;5054809;28;836;-68
2023/09/04 13:38:28;;;;;;;;;;;21.10;73.30;;;;;;5055444;28;878;-69
2023/09/04 13:40:53;;;;;;;;;;;21.10;73.30;;;;;;5053014;28;1894;-69
2023/09/04 13:43:19;;;;;;;;;;;21.10;73.30;;;;;;5052468;28;936;-69
2023/09/04 13:45:44;;;;;;;;;;;21.20;73.40;;;;;;5052771;28;1010;-69
2023/09/04 13:48:10;;;;;;;;;;;21.10;73.30;;;;;;5051772;28;819;-69
2023/09/04 13:50:35;;;;;;;;;;;21.20;73.30;;;;;;5052749;28;1309;-68
2023/09/04 13:53:01;;;;;;;;;;;21.10;73.30;;;;;;5052628;28;929;-69
2023/09/04 13:55:26;;;;;;;;;;;21.20;73.30;;;;;;5052355;28;804;-68
2023/09/04 13:57:52;;;;;;;;;;;21.20;73.40;;;;;;5051382;28;991;-69
2023/09/04 14:00:18;;;;;;;;;;;21.20;73.30;;;;;;5052271;28;1963;-69
2023/09/04 14:02:44;;;;;;;;;;;21.20;73.40;;;;;;5051949;28;1239;-69
2023/09/04 14:05:11;;;;;;;;;;;21.20;73.40;;;;;;5052429;28;938;-68
2023/09/04 14:07:37;;;;;;;;;;;21.20;73.30;;;;;;5052264;28;1358;-68
2023/09/04 14:10:02;;;;;;;;;;;21.20;73.40;;;;;;5051597;28;848;-68
2023/09/04 14:12:29;;;;;;;;;;;21.20;73.40;;;;;;5051886;28;1378;-68
2023/09/04 14:14:55;;;;;;;;;;;21.20;73.40;;;;;;5046653;28;837;-68
2023/09/04 14:17:21;;;;;;;;;;;21.10;73.30;;;;;;5052214;28;911;-68
2023/09/04 14:19:46;;;;;;;;;;;21.20;73.40;;;;;;5051725;28;1264;-68
2023/09/04 14:22:12;;;;;;;;;;;21.20;73.40;;;;;;5052325;28;1910;-68
2023/09/04 14:24:37;;;;;;;;;;;21.10;73.30;;;;;;5051084;28;1211;-68
2023/09/04 14:27:03;;;;;;;;;;;21.20;73.40;;;;;;5051970;28;1308;-68
2023/09/04 14:29:28;;;;;;;;;;;21.20;73.30;;;;;;5051476;28;1344;-68